createdAt,value
2023-07-30T00:00:43.030Z,0.00
2023-07-30T00:01:43.091Z,0.00
2023-07-30T00:02:43.036Z,0.00
2023-07-30T00:03:43.014Z,0.00
2023-07-30T00:04:42.975Z,0.00
2023-07-30T00:05:42.977Z,0.00
2023-07-30T00:06:42.950Z,0.00
2023-07-30T00:07:42.950Z,0.00
2023-07-30T00:08:42.926Z,0.00
2023-07-30T00:09:43.013Z,0.00
2023-07-30T00:10:42.920Z,0.00
2023-07-30T00:11:42.919Z,0.00
2023-07-30T00:12:42.892Z,0.00
2023-07-30T00:13:42.865Z,0.00
2023-07-30T00:14:42.852Z,0.00
2023-07-30T00:15:42.927Z,0.00
2023-07-30T00:16:42.856Z,0.00
2023-07-30T00:17:42.827Z,0.00
2023-07-30T00:18:42.814Z,0.00
2023-07-30T00:19:42.831Z,0.00
2023-07-30T00:20:42.807Z,0.00
2023-07-30T00:21:42.792Z,0.00
2023-07-30T00:22:42.779Z,0.00
2023-07-30T00:23:42.764Z,0.00
2023-07-30T00:24:42.795Z,0.00
2023-07-30T00:25:42.769Z,0.00
2023-07-30T00:26:42.730Z,0.00
2023-07-30T00:27:42.722Z,0.00
2023-07-30T00:28:42.733Z,0.00
2023-07-30T00:29:42.711Z,0.00
2023-07-30T00:30:42.718Z,0.00
2023-07-30T00:31:42.930Z,0.00
2023-07-30T00:32:44.435Z,0.00
2023-07-30T00:33:42.684Z,0.00
2023-07-30T00:34:42.652Z,0.00
2023-07-30T00:35:42.672Z,0.00
2023-07-30T00:36:42.623Z,0.00
2023-07-30T00:37:42.622Z,0.00
2023-07-30T00:38:42.616Z,0.00
2023-07-30T00:39:42.600Z,0.00
2023-07-30T00:40:42.689Z,0.00
2023-07-30T00:41:42.626Z,0.00
2023-07-30T00:42:42.575Z,0.00
2023-07-30T00:43:42.566Z,0.00
2023-07-30T00:44:42.543Z,0.00
2023-07-30T00:45:42.569Z,0.00
2023-07-30T00:46:42.592Z,0.00
2023-07-30T00:47:42.580Z,0.00
2023-07-30T00:48:42.503Z,0.00
2023-07-30T00:49:42.528Z,0.00
2023-07-30T00:50:42.489Z,0.00
2023-07-30T00:51:42.519Z,0.00
2023-07-30T00:52:42.456Z,0.00
2023-07-30T00:53:42.519Z,0.00
2023-07-30T00:54:42.499Z,0.00
2023-07-30T00:55:42.442Z,0.00
2023-07-30T00:56:42.415Z,0.00
2023-07-30T00:57:42.434Z,0.00
2023-07-30T00:58:42.410Z,0.00
2023-07-30T00:59:42.378Z,0.00
2023-07-30T01:00:42.481Z,0.00
2023-07-30T01:01:42.357Z,0.00
2023-07-30T01:02:42.364Z,0.00
2023-07-30T01:03:42.333Z,0.00
2023-07-30T01:04:42.386Z,0.00
2023-07-30T01:05:42.352Z,0.00
2023-07-30T01:06:42.302Z,0.00
2023-07-30T01:07:42.331Z,0.00
2023-07-30T01:08:42.290Z,0.00
2023-07-30T01:09:42.274Z,0.00
2023-07-30T01:10:42.277Z,0.00
2023-07-30T01:11:42.262Z,0.00
2023-07-30T01:12:42.261Z,0.00
2023-07-30T01:13:42.254Z,0.00
2023-07-30T01:14:42.229Z,0.00
2023-07-30T01:15:42.209Z,0.00
2023-07-30T01:16:42.255Z,0.00
2023-07-30T01:17:42.265Z,0.00
2023-07-30T01:18:42.193Z,0.00
2023-07-30T01:19:42.201Z,0.00
2023-07-30T01:20:42.157Z,0.00
2023-07-30T01:21:42.167Z,0.00
2023-07-30T01:22:42.136Z,0.00
2023-07-30T01:23:42.118Z,0.00
2023-07-30T01:24:42.117Z,0.00
2023-07-30T01:25:42.128Z,0.00
2023-07-30T01:26:42.097Z,0.00
2023-07-30T01:27:42.076Z,0.00
2023-07-30T01:28:42.072Z,0.00
2023-07-30T01:29:42.149Z,0.00
2023-07-30T01:30:42.150Z,0.00
2023-07-30T01:31:42.031Z,0.00
2023-07-30T01:32:42.124Z,0.00
2023-07-30T01:33:42.019Z,0.00
2023-07-30T01:34:42.009Z,0.00
2023-07-30T01:35:42.030Z,0.00
2023-07-30T01:36:41.986Z,0.00
2023-07-30T01:37:41.976Z,0.00
2023-07-30T01:38:41.971Z,0.00
2023-07-30T01:39:41.954Z,0.00
2023-07-30T01:40:41.973Z,0.00
2023-07-30T01:41:41.955Z,0.00
2023-07-30T01:42:41.921Z,0.00
2023-07-30T01:43:41.950Z,0.00
2023-07-30T01:44:41.931Z,0.00
2023-07-30T01:45:41.921Z,0.00
2023-07-30T01:46:41.911Z,0.00
2023-07-30T01:47:41.941Z,0.00
2023-07-30T01:48:41.862Z,0.00
2023-07-30T01:49:41.849Z,0.00
2023-07-30T01:50:41.851Z,0.00
2023-07-30T01:51:41.847Z,0.00
2023-07-30T01:52:41.825Z,0.00
2023-07-30T01:53:41.798Z,0.00
2023-07-30T01:54:41.792Z,0.00
2023-07-30T01:55:41.803Z,0.00
2023-07-30T01:56:41.789Z,0.00
2023-07-30T01:57:41.784Z,0.00
2023-07-30T01:58:41.754Z,0.00
2023-07-30T01:59:41.758Z,0.00
2023-07-30T02:00:41.744Z,0.00
2023-07-30T02:01:42.080Z,0.00
2023-07-30T02:02:41.834Z,0.00
2023-07-30T02:03:41.806Z,0.00
2023-07-30T02:04:41.703Z,0.00
2023-07-30T02:05:41.679Z,0.00
2023-07-30T02:06:41.687Z,0.00
2023-07-30T02:07:41.677Z,0.00
2023-07-30T02:08:41.639Z,0.00
2023-07-30T02:09:41.634Z,0.00
2023-07-30T02:10:41.651Z,0.00
2023-07-30T02:11:41.614Z,0.00
2023-07-30T02:12:41.620Z,0.00
2023-07-30T02:13:41.586Z,0.00
2023-07-30T02:14:41.584Z,0.00
2023-07-30T02:15:41.625Z,0.00
2023-07-30T02:16:41.579Z,0.00
2023-07-30T02:17:41.633Z,0.00
2023-07-30T02:18:41.553Z,0.00
2023-07-30T02:19:41.523Z,0.00
2023-07-30T02:20:41.504Z,0.00
2023-07-30T02:21:41.513Z,0.00
2023-07-30T02:22:41.523Z,0.00
2023-07-30T02:23:41.486Z,0.00
2023-07-30T02:24:41.496Z,0.00
2023-07-30T02:25:41.465Z,0.00
2023-07-30T02:26:41.472Z,0.00
2023-07-30T02:27:41.444Z,0.00
2023-07-30T02:28:41.538Z,0.00
2023-07-30T02:29:41.424Z,0.00
2023-07-30T02:30:41.412Z,0.00
2023-07-30T02:31:41.906Z,0.00
2023-07-30T02:32:41.407Z,0.00
2023-07-30T02:33:41.390Z,0.00
2023-07-30T02:34:41.360Z,0.00
2023-07-30T02:35:41.354Z,0.00
2023-07-30T02:36:41.374Z,0.00
2023-07-30T02:37:41.340Z,0.00
2023-07-30T02:38:41.332Z,0.00
2023-07-30T02:39:41.302Z,0.00
2023-07-30T02:40:41.301Z,0.00
2023-07-30T02:41:41.325Z,0.00
2023-07-30T02:42:41.373Z,0.00
2023-07-30T02:43:41.275Z,0.00
2023-07-30T02:44:41.256Z,0.00
2023-07-30T02:45:41.277Z,0.00
2023-07-30T02:46:41.249Z,0.00
2023-07-30T02:47:41.244Z,0.00
2023-07-30T02:48:41.211Z,0.00
2023-07-30T02:49:41.229Z,0.00
2023-07-30T02:50:41.185Z,0.00
2023-07-30T02:51:41.298Z,0.00
2023-07-30T02:52:41.192Z,0.00
2023-07-30T02:53:41.151Z,0.00
2023-07-30T02:54:41.140Z,0.00
2023-07-30T02:55:41.124Z,0.00
2023-07-30T02:56:41.136Z,0.00
2023-07-30T02:57:41.111Z,0.00
2023-07-30T02:58:41.132Z,0.00
2023-07-30T02:59:41.090Z,0.00
2023-07-30T03:00:41.083Z,0.00
2023-07-30T03:01:41.553Z,0.00
2023-07-30T03:02:41.314Z,0.00
2023-07-30T03:03:41.135Z,0.00
2023-07-30T03:04:41.028Z,0.00
2023-07-30T03:05:41.051Z,0.00
2023-07-30T03:06:41.016Z,0.00
2023-07-30T03:07:41.022Z,0.00
2023-07-30T03:08:41.025Z,0.00
2023-07-30T03:09:40.982Z,0.00
2023-07-30T03:10:40.992Z,0.00
2023-07-30T03:11:41.232Z,0.00
2023-07-30T03:12:40.955Z,0.00
2023-07-30T03:13:40.963Z,0.00
2023-07-30T03:14:40.923Z,0.00
2023-07-30T03:15:40.963Z,0.00
2023-07-30T03:16:40.920Z,0.00
2023-07-30T03:17:40.970Z,0.00
2023-07-30T03:18:40.888Z,0.00
2023-07-30T03:19:40.878Z,0.00
2023-07-30T03:20:40.883Z,0.00
2023-07-30T03:21:40.901Z,0.00
2023-07-30T03:22:40.839Z,0.00
2023-07-30T03:23:40.820Z,0.00
2023-07-30T03:24:40.816Z,0.00
2023-07-30T03:25:40.815Z,0.00
2023-07-30T03:26:40.813Z,0.00
2023-07-30T03:27:40.782Z,0.00
2023-07-30T03:28:41.205Z,0.00
2023-07-30T03:29:40.755Z,0.00
2023-07-30T03:30:40.787Z,0.00
2023-07-30T03:31:40.966Z,0.00
2023-07-30T03:32:40.775Z,0.00
2023-07-30T03:33:40.710Z,0.00
2023-07-30T03:34:40.707Z,5.62
2023-07-30T03:35:40.737Z,5.62
2023-07-30T03:36:40.683Z,5.62
2023-07-30T03:37:40.748Z,5.62
2023-07-30T03:38:40.665Z,5.62
2023-07-30T03:39:40.674Z,5.62
2023-07-30T03:40:40.640Z,5.62
2023-07-30T03:41:40.844Z,5.62
2023-07-30T03:42:40.616Z,5.62
2023-07-30T03:43:40.620Z,5.62
2023-07-30T03:44:40.600Z,5.62
2023-07-30T03:45:40.609Z,5.62
2023-07-30T03:46:40.604Z,5.62
2023-07-30T03:47:40.563Z,5.62
2023-07-30T03:48:40.552Z,11.25
2023-07-30T03:49:40.543Z,11.25
2023-07-30T03:50:40.548Z,11.25
2023-07-30T03:51:40.580Z,11.25
2023-07-30T03:52:40.508Z,11.25
2023-07-30T03:53:40.536Z,11.25
2023-07-30T03:54:40.486Z,11.25
2023-07-30T03:55:40.473Z,11.25
2023-07-30T03:56:40.462Z,11.25
2023-07-30T03:57:40.481Z,11.25
2023-07-30T03:58:40.452Z,11.25
2023-07-30T03:59:40.440Z,11.25
2023-07-30T04:00:40.439Z,11.25
2023-07-30T04:01:40.578Z,11.25
2023-07-30T04:02:40.497Z,11.25
2023-07-30T04:03:40.561Z,11.25
2023-07-30T04:04:40.380Z,11.25
2023-07-30T04:05:40.368Z,11.25
2023-07-30T04:06:40.365Z,16.88
2023-07-30T04:07:41.448Z,16.88
2023-07-30T04:08:40.330Z,16.88
2023-07-30T04:09:40.345Z,16.88
2023-07-30T04:10:40.332Z,22.50
2023-07-30T04:11:40.470Z,22.50
2023-07-30T04:12:40.292Z,22.50
2023-07-30T04:13:40.281Z,22.50
2023-07-30T04:14:40.298Z,22.50
2023-07-30T04:15:40.286Z,22.50
2023-07-30T04:16:40.261Z,22.50
2023-07-30T04:17:40.294Z,22.50
2023-07-30T04:18:40.221Z,28.12
2023-07-30T04:19:40.235Z,28.12
2023-07-30T04:20:40.237Z,28.12
2023-07-30T04:21:40.248Z,28.12
2023-07-30T04:22:40.182Z,28.12
2023-07-30T04:23:40.179Z,28.12
2023-07-30T04:24:40.160Z,28.12
2023-07-30T04:25:40.193Z,28.12
2023-07-30T04:26:40.137Z,28.12
2023-07-30T04:27:40.127Z,22.50
2023-07-30T04:28:40.145Z,22.50
2023-07-30T04:29:40.165Z,16.88
2023-07-30T04:30:40.158Z,16.88
2023-07-30T04:31:40.440Z,16.88
2023-07-30T04:32:40.097Z,16.88
2023-07-30T04:33:40.097Z,16.88
2023-07-30T04:34:40.091Z,16.88
2023-07-30T04:35:40.044Z,16.88
2023-07-30T04:36:40.064Z,16.88
2023-07-30T04:37:40.023Z,22.50
2023-07-30T04:38:40.014Z,22.50
2023-07-30T04:39:40.025Z,22.50
2023-07-30T04:40:40.017Z,22.50
2023-07-30T04:41:40.376Z,22.50
2023-07-30T04:42:39.972Z,22.50
2023-07-30T04:43:39.953Z,28.12
2023-07-30T04:44:39.967Z,22.50
2023-07-30T04:45:39.934Z,28.12
2023-07-30T04:46:40.034Z,28.12
2023-07-30T04:47:40.019Z,28.12
2023-07-30T04:48:39.985Z,28.12
2023-07-30T04:49:39.891Z,28.12
2023-07-30T04:50:39.881Z,22.50
2023-07-30T04:51:40.352Z,33.75
2023-07-30T04:52:39.872Z,33.75
2023-07-30T04:53:39.852Z,39.38
2023-07-30T04:54:39.856Z,39.38
2023-07-30T04:55:39.850Z,39.38
2023-07-30T04:56:39.832Z,39.38
2023-07-30T04:57:39.832Z,39.38
2023-07-30T04:58:39.799Z,39.38
2023-07-30T04:59:39.795Z,39.38
2023-07-30T05:00:39.771Z,33.75
2023-07-30T05:01:40.068Z,33.75
2023-07-30T05:02:39.816Z,28.12
2023-07-30T05:03:39.792Z,28.12
2023-07-30T05:04:39.728Z,28.12
2023-07-30T05:05:39.721Z,28.12
2023-07-30T05:06:39.738Z,33.75
2023-07-30T05:07:39.694Z,33.75
2023-07-30T05:08:39.688Z,28.12
2023-07-30T05:09:39.704Z,33.75
2023-07-30T05:10:39.664Z,39.38
2023-07-30T05:11:39.987Z,39.38
2023-07-30T05:12:39.653Z,28.12
2023-07-30T05:13:39.641Z,33.75
2023-07-30T05:14:39.624Z,39.38
2023-07-30T05:15:39.610Z,39.38
2023-07-30T05:16:39.640Z,39.38
2023-07-30T05:17:39.665Z,45.00
2023-07-30T05:18:39.575Z,45.00
2023-07-30T05:19:39.563Z,45.00
2023-07-30T05:20:39.548Z,45.00
2023-07-30T05:21:39.882Z,45.00
2023-07-30T05:22:39.558Z,45.00
2023-07-30T05:23:39.521Z,45.00
2023-07-30T05:24:39.514Z,45.00
2023-07-30T05:25:39.513Z,50.62
2023-07-30T05:26:39.489Z,50.62
2023-07-30T05:27:39.507Z,50.62
2023-07-30T05:28:39.510Z,56.25
2023-07-30T05:29:39.508Z,67.50
2023-07-30T05:30:39.450Z,78.75
2023-07-30T05:31:39.830Z,90.00
2023-07-30T05:32:39.441Z,95.62
2023-07-30T05:33:39.422Z,90.00
2023-07-30T05:34:39.418Z,84.38
2023-07-30T05:35:39.394Z,84.38
2023-07-30T05:36:39.405Z,78.75
2023-07-30T05:37:39.386Z,84.38
2023-07-30T05:38:39.354Z,78.75
2023-07-30T05:39:39.377Z,73.12
2023-07-30T05:40:40.293Z,73.12
2023-07-30T05:41:39.622Z,73.12
2023-07-30T05:42:39.334Z,67.50
2023-07-30T05:43:39.342Z,67.50
2023-07-30T05:44:39.316Z,67.50
2023-07-30T05:45:39.335Z,67.50
2023-07-30T05:46:39.278Z,67.50
2023-07-30T05:47:39.401Z,67.50
2023-07-30T05:48:39.279Z,67.50
2023-07-30T05:49:39.250Z,67.50
2023-07-30T05:50:39.231Z,67.50
2023-07-30T05:51:39.537Z,73.12
2023-07-30T05:52:39.237Z,78.75
2023-07-30T05:53:39.208Z,78.75
2023-07-30T05:54:39.191Z,78.75
2023-07-30T05:55:39.188Z,73.12
2023-07-30T05:56:39.192Z,78.75
2023-07-30T05:57:39.161Z,84.38
2023-07-30T05:58:39.147Z,90.00
2023-07-30T05:59:39.146Z,90.00
2023-07-30T06:00:39.122Z,84.38
2023-07-30T06:01:39.390Z,78.75
2023-07-30T06:02:39.175Z,84.38
2023-07-30T06:03:39.127Z,90.00
2023-07-30T06:04:39.101Z,84.38
2023-07-30T06:05:39.076Z,84.38
2023-07-30T06:06:39.073Z,90.00
2023-07-30T06:07:39.086Z,78.75
2023-07-30T06:08:39.040Z,67.50
2023-07-30T06:09:39.037Z,61.88
2023-07-30T06:10:39.054Z,67.50
2023-07-30T06:11:39.359Z,78.75
2023-07-30T06:12:39.005Z,90.00
2023-07-30T06:13:38.996Z,90.00
2023-07-30T06:14:38.981Z,90.00
2023-07-30T06:15:39.130Z,84.38
2023-07-30T06:16:39.068Z,90.00
2023-07-30T06:17:39.043Z,95.62
2023-07-30T06:18:38.941Z,112.50
2023-07-30T06:19:38.930Z,101.25
2023-07-30T06:20:38.939Z,78.75
2023-07-30T06:21:39.172Z,73.12
2023-07-30T06:22:38.897Z,78.75
2023-07-30T06:23:38.887Z,67.50
2023-07-30T06:24:38.876Z,67.50
2023-07-30T06:25:38.895Z,112.50
2023-07-30T06:26:38.849Z,112.50
2023-07-30T06:27:38.864Z,78.75
2023-07-30T06:28:38.882Z,67.50
2023-07-30T06:29:38.823Z,73.12
2023-07-30T06:30:38.834Z,95.62
2023-07-30T06:31:39.053Z,106.88
2023-07-30T06:32:38.817Z,129.38
2023-07-30T06:33:38.801Z,135.00
2023-07-30T06:34:38.758Z,123.75
2023-07-30T06:35:38.800Z,129.38
2023-07-30T06:36:38.743Z,135.00
2023-07-30T06:37:38.729Z,135.00
2023-07-30T06:38:38.782Z,135.00
2023-07-30T06:39:38.713Z,135.00
2023-07-30T06:40:38.701Z,123.75
2023-07-30T06:41:39.029Z,123.75
2023-07-30T06:42:38.685Z,123.75
2023-07-30T06:43:38.684Z,118.12
2023-07-30T06:44:38.651Z,118.12
2023-07-30T06:45:38.641Z,129.38
2023-07-30T06:46:38.704Z,123.75
2023-07-30T06:47:38.656Z,112.50
2023-07-30T06:48:38.611Z,123.75
2023-07-30T06:49:38.625Z,123.75
2023-07-30T06:50:38.580Z,106.88
2023-07-30T06:51:38.806Z,146.25
2023-07-30T06:52:38.593Z,180.00
2023-07-30T06:53:38.556Z,191.25
2023-07-30T06:54:40.218Z,168.75
2023-07-30T06:55:38.533Z,157.50
2023-07-30T06:56:38.516Z,118.12
2023-07-30T06:57:38.541Z,95.62
2023-07-30T06:58:40.754Z,84.38
2023-07-30T06:59:38.523Z,112.50
2023-07-30T07:00:38.479Z,118.12
2023-07-30T07:01:38.771Z,135.00
2023-07-30T07:02:38.614Z,146.25
2023-07-30T07:03:38.534Z,157.50
2023-07-30T07:04:38.439Z,157.50
2023-07-30T07:05:38.470Z,168.75
2023-07-30T07:06:38.416Z,174.38
2023-07-30T07:07:38.422Z,185.62
2023-07-30T07:08:38.405Z,185.62
2023-07-30T07:09:38.384Z,151.88
2023-07-30T07:10:38.387Z,101.25
2023-07-30T07:11:38.575Z,247.50
2023-07-30T07:12:38.371Z,151.88
2023-07-30T07:13:38.343Z,253.12
2023-07-30T07:14:38.350Z,241.88
2023-07-30T07:15:38.343Z,264.38
2023-07-30T07:16:38.391Z,157.50
2023-07-30T07:17:38.352Z,258.75
2023-07-30T07:18:38.284Z,219.38
2023-07-30T07:19:38.300Z,157.50
2023-07-30T07:20:38.267Z,157.50
2023-07-30T07:21:38.560Z,191.25
2023-07-30T07:22:38.237Z,208.12
2023-07-30T07:23:38.238Z,146.25
2023-07-30T07:24:38.254Z,180.00
2023-07-30T07:25:38.233Z,208.12
2023-07-30T07:26:38.195Z,157.50
2023-07-30T07:27:38.189Z,196.88
2023-07-30T07:28:38.218Z,174.38
2023-07-30T07:29:38.209Z,163.12
2023-07-30T07:30:38.306Z,146.25
2023-07-30T07:31:38.149Z,157.50
2023-07-30T07:32:38.189Z,163.12
2023-07-30T07:33:38.126Z,196.88
2023-07-30T07:34:38.132Z,219.38
2023-07-30T07:35:38.126Z,241.88
2023-07-30T07:36:38.093Z,264.38
2023-07-30T07:37:38.120Z,241.88
2023-07-30T07:38:38.091Z,241.88
2023-07-30T07:39:38.091Z,168.75
2023-07-30T07:40:38.086Z,151.88
2023-07-30T07:41:38.233Z,168.75
2023-07-30T07:42:38.033Z,168.75
2023-07-30T07:43:38.018Z,185.62
2023-07-30T07:44:38.011Z,230.62
2023-07-30T07:45:38.014Z,191.25
2023-07-30T07:46:38.196Z,163.12
2023-07-30T07:47:38.088Z,135.00
2023-07-30T07:48:37.978Z,180.00
2023-07-30T07:49:37.954Z,196.88
2023-07-30T07:50:37.940Z,168.75
2023-07-30T07:51:38.399Z,163.12
2023-07-30T07:52:37.922Z,219.38
2023-07-30T07:53:37.934Z,253.12
2023-07-30T07:54:37.897Z,309.38
2023-07-30T07:55:37.893Z,253.12
2023-07-30T07:56:37.901Z,225.00
2023-07-30T07:57:38.995Z,202.50
2023-07-30T07:58:37.863Z,180.00
2023-07-30T07:59:37.846Z,236.25
2023-07-30T08:00:37.838Z,230.62
2023-07-30T08:01:38.111Z,219.38
2023-07-30T08:02:37.871Z,230.62
2023-07-30T08:03:37.857Z,151.88
2023-07-30T08:04:37.840Z,163.12
2023-07-30T08:05:37.786Z,281.25
2023-07-30T08:06:37.793Z,219.38
2023-07-30T08:07:37.774Z,208.12
2023-07-30T08:08:37.798Z,202.50
2023-07-30T08:09:37.766Z,219.38
2023-07-30T08:10:37.739Z,219.38
2023-07-30T08:11:37.979Z,208.12
2023-07-30T08:12:37.701Z,213.75
2023-07-30T08:13:37.699Z,315.00
2023-07-30T08:14:37.703Z,213.75
2023-07-30T08:15:37.677Z,135.00
2023-07-30T08:16:37.687Z,67.50
2023-07-30T08:17:37.698Z,90.00
2023-07-30T08:18:37.646Z,118.12
2023-07-30T08:19:37.655Z,146.25
2023-07-30T08:20:37.621Z,196.88
2023-07-30T08:21:37.933Z,337.50
2023-07-30T08:22:37.614Z,225.00
2023-07-30T08:23:37.615Z,163.12
2023-07-30T08:24:37.577Z,360.00
2023-07-30T08:25:37.594Z,315.00
2023-07-30T08:26:37.560Z,286.88
2023-07-30T08:27:37.545Z,534.38
2023-07-30T08:28:37.616Z,601.88
2023-07-30T08:29:39.330Z,208.12
2023-07-30T08:30:37.514Z,292.50
2023-07-30T08:31:37.940Z,168.75
2023-07-30T08:32:40.475Z,202.50
2023-07-30T08:33:37.482Z,360.00
2023-07-30T08:34:37.495Z,275.62
2023-07-30T08:35:37.462Z,354.38
2023-07-30T08:36:37.690Z,230.62
2023-07-30T08:37:37.447Z,135.00
2023-07-30T08:38:37.433Z,202.50
2023-07-30T08:39:37.443Z,264.38
2023-07-30T08:40:37.410Z,275.62
2023-07-30T08:41:37.899Z,230.62
2023-07-30T08:42:37.393Z,208.12
2023-07-30T08:43:37.387Z,298.12
2023-07-30T08:44:37.394Z,270.00
2023-07-30T08:45:37.399Z,348.75
2023-07-30T08:46:37.394Z,331.88
2023-07-30T08:47:37.355Z,247.50
2023-07-30T08:48:37.328Z,253.12
2023-07-30T08:49:37.348Z,258.75
2023-07-30T08:50:37.312Z,309.38
2023-07-30T08:51:37.487Z,309.38
2023-07-30T08:52:37.298Z,298.12
2023-07-30T08:53:37.303Z,264.38
2023-07-30T08:54:37.264Z,286.88
2023-07-30T08:55:37.254Z,275.62
2023-07-30T08:56:37.238Z,270.00
2023-07-30T08:57:37.260Z,264.38
2023-07-30T08:58:37.244Z,270.00
2023-07-30T08:59:37.209Z,270.00
2023-07-30T09:00:37.202Z,281.25
2023-07-30T09:01:37.673Z,410.62
2023-07-30T09:02:37.212Z,264.38
2023-07-30T09:03:37.195Z,146.25
2023-07-30T09:04:37.161Z,185.62
2023-07-30T09:05:37.168Z,253.12
2023-07-30T09:06:37.156Z,326.25
2023-07-30T09:07:37.127Z,230.62
2023-07-30T09:08:37.219Z,247.50
2023-07-30T09:09:37.114Z,309.38
2023-07-30T09:10:37.097Z,140.62
2023-07-30T09:11:37.288Z,157.50
2023-07-30T09:12:37.078Z,202.50
2023-07-30T09:13:37.088Z,286.88
2023-07-30T09:14:37.078Z,264.38
2023-07-30T09:15:37.099Z,303.75
2023-07-30T09:16:37.048Z,157.50
2023-07-30T09:17:37.109Z,202.50
2023-07-30T09:18:37.015Z,315.00
2023-07-30T09:19:37.029Z,303.75
2023-07-30T09:20:36.995Z,230.62
2023-07-30T09:21:37.375Z,320.62
2023-07-30T09:22:36.980Z,388.12
2023-07-30T09:23:37.749Z,444.38
2023-07-30T09:24:36.973Z,365.62
2023-07-30T09:25:36.940Z,506.25
2023-07-30T09:26:36.937Z,601.88
2023-07-30T09:27:36.915Z,399.38
2023-07-30T09:28:37.060Z,151.88
2023-07-30T09:29:36.918Z,489.38
2023-07-30T09:30:36.892Z,883.12
2023-07-30T09:31:36.967Z,433.12
2023-07-30T09:32:37.010Z,708.75
2023-07-30T09:33:36.854Z,315.00
2023-07-30T09:34:36.873Z,348.75
2023-07-30T09:35:36.830Z,286.88
2023-07-30T09:36:36.820Z,489.38
2023-07-30T09:37:36.835Z,1203.75
2023-07-30T09:38:36.804Z,286.88
2023-07-30T09:39:36.791Z,146.25
2023-07-30T09:40:36.882Z,123.75
2023-07-30T09:41:37.184Z,146.25
2023-07-30T09:42:36.768Z,1507.50
2023-07-30T09:43:36.750Z,1417.50
2023-07-30T09:44:36.740Z,2345.62
2023-07-30T09:45:36.841Z,180.00
2023-07-30T09:46:36.724Z,191.25
2023-07-30T09:47:36.722Z,253.12
2023-07-30T09:48:36.711Z,337.50
2023-07-30T09:49:36.686Z,450.00
2023-07-30T09:50:36.728Z,230.62
2023-07-30T09:51:36.997Z,241.88
2023-07-30T09:52:36.656Z,258.75
2023-07-30T09:53:36.655Z,191.25
2023-07-30T09:54:36.662Z,101.25
2023-07-30T09:55:36.649Z,73.12
2023-07-30T09:56:36.613Z,67.50
2023-07-30T09:57:36.606Z,84.38
2023-07-30T09:58:36.592Z,106.88
2023-07-30T09:59:37.255Z,112.50
2023-07-30T10:00:36.614Z,151.88
2023-07-30T10:01:37.013Z,180.00
2023-07-30T10:02:36.600Z,230.62
2023-07-30T10:03:36.538Z,292.50
2023-07-30T10:04:36.618Z,157.50
2023-07-30T10:05:36.512Z,118.12
2023-07-30T10:06:36.544Z,106.88
2023-07-30T10:07:36.494Z,101.25
2023-07-30T10:08:36.482Z,112.50
2023-07-30T10:09:36.508Z,146.25
2023-07-30T10:10:36.464Z,135.00
2023-07-30T10:11:36.689Z,123.75
2023-07-30T10:12:36.440Z,191.25
2023-07-30T10:13:36.427Z,241.88
2023-07-30T10:14:36.447Z,258.75
2023-07-30T10:15:36.454Z,185.62
2023-07-30T10:16:36.431Z,151.88
2023-07-30T10:17:36.441Z,135.00
2023-07-30T10:18:36.375Z,106.88
2023-07-30T10:19:36.366Z,106.88
2023-07-30T10:20:36.372Z,123.75
2023-07-30T10:21:36.686Z,129.38
2023-07-30T10:22:36.345Z,151.88
2023-07-30T10:23:36.327Z,168.75
2023-07-30T10:24:36.314Z,185.62
2023-07-30T10:25:36.306Z,191.25
2023-07-30T10:26:36.318Z,213.75
2023-07-30T10:27:36.292Z,247.50
2023-07-30T10:28:36.366Z,320.62
2023-07-30T10:29:36.263Z,427.50
2023-07-30T10:30:36.257Z,416.25
2023-07-30T10:31:36.564Z,315.00
2023-07-30T10:32:36.263Z,343.12
2023-07-30T10:33:36.266Z,354.38
2023-07-30T10:34:36.212Z,343.12
2023-07-30T10:35:36.214Z,303.75
2023-07-30T10:36:36.191Z,213.75
2023-07-30T10:37:36.180Z,320.62
2023-07-30T10:38:36.176Z,354.38
2023-07-30T10:39:36.187Z,247.50
2023-07-30T10:40:36.149Z,315.00
2023-07-30T10:41:36.381Z,298.12
2023-07-30T10:42:36.133Z,315.00
2023-07-30T10:43:36.119Z,343.12
2023-07-30T10:44:36.387Z,337.50
2023-07-30T10:45:36.091Z,213.75
2023-07-30T10:46:36.328Z,168.75
2023-07-30T10:47:37.483Z,163.12
2023-07-30T10:48:36.059Z,163.12
2023-07-30T10:49:36.077Z,253.12
2023-07-30T10:50:36.761Z,196.88
2023-07-30T10:51:36.072Z,174.38
2023-07-30T10:52:36.027Z,135.00
2023-07-30T10:53:36.008Z,123.75
2023-07-30T10:54:36.014Z,135.00
2023-07-30T10:55:36.001Z,163.12
2023-07-30T10:56:36.331Z,196.88
2023-07-30T10:57:35.980Z,191.25
2023-07-30T10:58:35.966Z,185.62
2023-07-30T10:59:35.952Z,163.12
2023-07-30T11:00:35.943Z,140.62
2023-07-30T11:01:36.379Z,140.62
2023-07-30T11:02:36.021Z,129.38
2023-07-30T11:03:36.062Z,146.25
2023-07-30T11:04:36.269Z,247.50
2023-07-30T11:05:35.905Z,365.62
2023-07-30T11:06:35.872Z,877.50
2023-07-30T11:07:35.880Z,253.12
2023-07-30T11:08:35.885Z,135.00
2023-07-30T11:09:35.849Z,95.62
2023-07-30T11:10:36.437Z,106.88
2023-07-30T11:11:36.068Z,123.75
2023-07-30T11:12:35.829Z,123.75
2023-07-30T11:13:35.809Z,135.00
2023-07-30T11:14:35.811Z,140.62
2023-07-30T11:15:35.790Z,168.75
2023-07-30T11:16:37.082Z,241.88
2023-07-30T11:17:35.773Z,2418.75
2023-07-30T11:18:35.744Z,2289.38
2023-07-30T11:19:35.760Z,1051.88
2023-07-30T11:20:35.729Z,1546.88
2023-07-30T11:21:35.824Z,1710.00
2023-07-30T11:22:35.730Z,2840.62
2023-07-30T11:23:35.707Z,3864.38
2023-07-30T11:24:35.677Z,3470.62
2023-07-30T11:25:35.674Z,320.62
2023-07-30T11:26:35.687Z,3600.00
2023-07-30T11:27:35.677Z,635.62
2023-07-30T11:28:38.041Z,3076.88
2023-07-30T11:29:35.643Z,956.25
2023-07-30T11:30:35.643Z,1991.25
2023-07-30T11:31:35.621Z,3262.50
2023-07-30T11:32:35.648Z,3403.12
2023-07-30T11:33:35.600Z,3678.75
2023-07-30T11:34:37.155Z,4185.00
2023-07-30T11:35:35.579Z,4415.62
2023-07-30T11:36:35.555Z,4404.38
2023-07-30T11:37:35.605Z,3465.00
2023-07-30T11:38:35.537Z,3960.00
2023-07-30T11:39:35.531Z,4078.12
2023-07-30T11:40:35.521Z,4010.62
2023-07-30T11:41:35.576Z,365.62
2023-07-30T11:42:35.518Z,371.25
2023-07-30T11:43:35.526Z,393.75
2023-07-30T11:44:35.489Z,421.88
2023-07-30T11:45:35.464Z,399.38
2023-07-30T11:46:36.770Z,410.62
2023-07-30T11:47:38.064Z,405.00
2023-07-30T11:48:35.464Z,916.88
2023-07-30T11:49:35.432Z,1119.38
2023-07-30T11:50:35.418Z,253.12
2023-07-30T11:51:35.408Z,275.62
2023-07-30T11:52:35.387Z,776.25
2023-07-30T11:53:35.425Z,1383.75
2023-07-30T11:54:35.425Z,1310.62
2023-07-30T11:55:35.392Z,1417.50
2023-07-30T11:56:35.357Z,1338.75
2023-07-30T11:57:35.384Z,1485.00
2023-07-30T11:58:35.336Z,1563.75
2023-07-30T11:59:35.347Z,618.75
2023-07-30T12:00:35.311Z,1136.25
2023-07-30T12:01:35.354Z,455.62
2023-07-30T12:02:35.399Z,365.62
2023-07-30T12:03:35.327Z,365.62
2023-07-30T12:04:35.261Z,258.75
2023-07-30T12:05:35.260Z,213.75
2023-07-30T12:06:35.252Z,298.12
2023-07-30T12:07:35.260Z,371.25
2023-07-30T12:08:35.233Z,348.75
2023-07-30T12:09:35.932Z,416.25
2023-07-30T12:10:35.203Z,202.50
2023-07-30T12:11:35.329Z,315.00
2023-07-30T12:12:35.210Z,247.50
2023-07-30T12:13:35.177Z,286.88
2023-07-30T12:14:35.162Z,213.75
2023-07-30T12:15:35.157Z,781.88
2023-07-30T12:16:35.173Z,1355.62
2023-07-30T12:17:35.195Z,1170.00
2023-07-30T12:18:35.114Z,562.50
2023-07-30T12:19:35.118Z,365.62
2023-07-30T12:20:35.787Z,309.38
2023-07-30T12:21:37.521Z,258.75
2023-07-30T12:22:35.075Z,219.38
2023-07-30T12:23:35.093Z,247.50
2023-07-30T12:24:35.065Z,292.50
2023-07-30T12:25:35.069Z,309.38
2023-07-30T12:26:35.032Z,191.25
2023-07-30T12:27:35.022Z,151.88
2023-07-30T12:28:35.129Z,135.00
2023-07-30T12:29:35.041Z,157.50
2023-07-30T12:30:34.989Z,208.12
2023-07-30T12:31:35.061Z,523.12
2023-07-30T12:32:34.981Z,945.00
2023-07-30T12:33:34.954Z,1035.00
2023-07-30T12:34:34.967Z,1074.38
2023-07-30T12:35:34.957Z,1119.38
2023-07-30T12:36:34.923Z,1215.00
2023-07-30T12:37:34.920Z,393.75
2023-07-30T12:38:34.930Z,421.88
2023-07-30T12:39:34.896Z,1012.50
2023-07-30T12:40:34.894Z,365.62
2023-07-30T12:41:34.897Z,185.62
2023-07-30T12:42:34.860Z,151.88
2023-07-30T12:43:34.876Z,140.62
2023-07-30T12:44:34.852Z,118.12
2023-07-30T12:45:34.863Z,95.62
2023-07-30T12:46:34.820Z,129.38